Giard, Iowa
Current Conditions -  °F | °C
As of 2:15 PM on Thursday 18 Dec 2014 (Local Time) from KPDC Reporting Station
Overcast Overcast  
Wind Chill: 28°   Ceiling: 2400
Heat Index: 28°   Visibility: 10mi
Dew Point: 17°   Wind: 0mph
Humidity: 63%   Direction: NA
Pressure: 30.25"   Gusts: NA
Location:  43.0056°N, 91.2139°W
Report Text: KPDC 182015Z AUTO 00000KT 10SM OVC024 M02/M09 A3025 RMK AO2 T10251086
Loading
Personal Weather Stations






























Interactive Weather Map New forecast layout! Learn more

10-Day Weather Forecast

Advertisements
Track Severe Weather on mobile